createdAt,value
2019-04-30T00:00:34.774Z,35.30
2019-04-30T00:01:31.016Z,36.60
2019-04-30T00:02:35.625Z,38.40
2019-04-30T00:03:31.007Z,36.00
2019-04-30T00:04:37.530Z,45.50
2019-04-30T00:05:31.000Z,34.30
2019-04-30T00:06:34.532Z,35.60
2019-04-30T00:07:30.990Z,33.20
2019-04-30T00:08:35.651Z,35.40
2019-04-30T00:09:30.982Z,43.20
2019-04-30T00:10:36.911Z,35.00
2019-04-30T00:11:30.975Z,36.40
2019-04-30T00:12:35.121Z,39.20
2019-04-30T00:13:30.970Z,43.60
2019-04-30T00:14:36.891Z,35.40
2019-04-30T00:15:30.960Z,39.60
2019-04-30T00:16:35.197Z,43.40
2019-04-30T00:17:30.952Z,42.60
2019-04-30T00:18:35.265Z,37.40
2019-04-30T00:19:30.946Z,44.90
2019-04-30T00:20:37.179Z,36.60
2019-04-30T00:21:30.936Z,37.20
2019-04-30T00:22:34.064Z,36.40
2019-04-30T00:23:30.996Z,41.90
2019-04-30T00:24:30.922Z,40.90
2019-04-30T00:25:30.918Z,46.00
2019-04-30T00:26:30.917Z,39.10
2019-04-30T00:27:30.911Z,46.10
2019-04-30T00:28:30.907Z,42.70
2019-04-30T00:29:31.147Z,45.20
2019-04-30T00:30:30.900Z,38.60
2019-04-30T00:31:30.893Z,44.80
2019-04-30T00:32:30.893Z,43.20
2019-04-30T00:33:30.887Z,43.60
2019-04-30T00:34:34.959Z,43.10
2019-04-30T00:35:30.877Z,38.50
2019-04-30T00:36:34.121Z,37.90
2019-04-30T00:37:30.870Z,38.70
2019-04-30T00:38:34.332Z,33.80
2019-04-30T00:39:30.862Z,33.20
2019-04-30T00:40:30.857Z,33.60
2019-04-30T00:41:30.855Z,37.60
2019-04-30T00:42:30.850Z,41.20
2019-04-30T00:43:30.845Z,35.50
2019-04-30T00:44:30.845Z,32.60
2019-04-30T00:45:30.839Z,31.90
2019-04-30T00:46:30.835Z,34.60
2019-04-30T00:47:30.830Z,35.60
2019-04-30T00:48:31.301Z,32.90
2019-04-30T00:49:30.822Z,32.70
2019-04-30T00:50:35.905Z,32.70
2019-04-30T00:51:30.812Z,32.70
2019-04-30T00:52:33.939Z,38.40
2019-04-30T00:53:30.818Z,38.20
2019-04-30T00:54:31.004Z,30.70
2019-04-30T00:55:30.796Z,31.90
2019-04-30T00:56:30.792Z,28.60
2019-04-30T00:57:30.789Z,29.10
2019-04-30T00:58:30.783Z,35.00
2019-04-30T00:59:30.781Z,39.40
2019-04-30T01:00:30.775Z,35.00
2019-04-30T01:01:30.771Z,29.80
2019-04-30T01:02:32.215Z,33.60
2019-04-30T01:03:30.764Z,36.00
2019-04-30T01:04:30.760Z,32.70
2019-04-30T01:05:30.757Z,31.50
2019-04-30T01:06:30.753Z,33.20
2019-04-30T01:07:30.748Z,31.00
2019-04-30T01:08:30.744Z,30.60
2019-04-30T01:09:30.739Z,32.20
2019-04-30T01:10:30.736Z,26.60
2019-04-30T01:11:30.735Z,33.60
2019-04-30T01:12:35.920Z,26.90
2019-04-30T01:13:30.723Z,30.20
2019-04-30T01:14:31.960Z,28.90
2019-04-30T01:15:30.715Z,26.80
2019-04-30T01:16:33.169Z,27.60
2019-04-30T01:17:30.707Z,30.70
2019-04-30T01:18:32.052Z,32.40
2019-04-30T01:19:32.922Z,28.60
2019-04-30T01:20:32.729Z,27.60
2019-04-30T01:21:30.691Z,31.90
2019-04-30T01:22:32.921Z,34.50
2019-04-30T01:23:30.682Z,27.50
2019-04-30T01:24:31.695Z,24.60
2019-04-30T01:25:30.675Z,31.10
2019-04-30T01:26:31.136Z,26.40
2019-04-30T01:27:30.665Z,27.80
2019-04-30T01:28:30.664Z,27.30
2019-04-30T01:29:38.144Z,30.10
2019-04-30T01:30:30.662Z,26.80
2019-04-30T01:31:31.695Z,32.10
2019-04-30T01:32:30.646Z,32.20
2019-04-30T01:33:34.704Z,31.80
2019-04-30T01:34:30.638Z,26.20
2019-04-30T01:35:32.666Z,26.70
2019-04-30T01:36:30.629Z,27.70
2019-04-30T01:37:32.818Z,27.80
2019-04-30T01:38:30.724Z,30.50
2019-04-30T01:39:31.728Z,32.60
2019-04-30T01:40:30.612Z,30.20
2019-04-30T01:41:31.350Z,27.50
2019-04-30T01:42:30.605Z,29.90
2019-04-30T01:43:33.601Z,32.80
2019-04-30T01:44:30.595Z,29.50
2019-04-30T01:45:31.583Z,27.60
2019-04-30T01:46:30.586Z,29.30
2019-04-30T01:47:31.360Z,25.30
2019-04-30T01:48:30.577Z,24.30
2019-04-30T01:49:41.762Z,29.70
2019-04-30T01:50:33.780Z,28.80
2019-04-30T01:51:30.563Z,32.00
2019-04-30T01:52:35.119Z,29.50
2019-04-30T01:53:30.558Z,28.00
2019-04-30T01:54:30.552Z,31.20
2019-04-30T01:55:30.549Z,26.60
2019-04-30T01:56:30.544Z,28.50
2019-04-30T01:57:30.538Z,27.70
2019-04-30T01:58:33.119Z,25.70
2019-04-30T01:59:30.530Z,33.40
2019-04-30T02:00:30.525Z,29.80
2019-04-30T02:01:31.110Z,30.80
2019-04-30T02:02:30.519Z,28.30
2019-04-30T02:03:30.511Z,25.40
2019-04-30T02:04:31.508Z,30.00
2019-04-30T02:05:30.505Z,29.60
2019-04-30T02:06:30.502Z,27.00
2019-04-30T02:07:30.494Z,31.30
2019-04-30T02:08:30.492Z,29.70
2019-04-30T02:09:30.487Z,28.60
2019-04-30T02:10:30.482Z,24.80
2019-04-30T02:11:30.477Z,26.70
2019-04-30T02:12:30.472Z,30.40
2019-04-30T02:13:34.273Z,31.70
2019-04-30T02:14:30.467Z,29.20
2019-04-30T02:15:30.459Z,30.50
2019-04-30T02:16:30.456Z,34.20
2019-04-30T02:17:30.452Z,29.80
2019-04-30T02:18:30.450Z,30.70
2019-04-30T02:19:31.182Z,28.00
2019-04-30T02:20:30.438Z,27.20
2019-04-30T02:21:33.161Z,27.80
2019-04-30T02:22:31.216Z,30.70
2019-04-30T02:23:30.425Z,27.00
2019-04-30T02:24:30.421Z,25.40
2019-04-30T02:25:30.417Z,25.50
2019-04-30T02:26:30.414Z,23.40
2019-04-30T02:27:30.408Z,25.00
2019-04-30T02:28:30.405Z,27.60
2019-04-30T02:29:30.400Z,25.60
2019-04-30T02:30:30.972Z,21.10
2019-04-30T02:31:31.003Z,24.70
2019-04-30T02:32:30.736Z,26.80
2019-04-30T02:33:30.822Z,28.00
2019-04-30T02:34:30.415Z,26.00
2019-04-30T02:35:30.374Z,21.80
2019-04-30T02:36:30.372Z,24.90
2019-04-30T02:37:30.366Z,28.50
2019-04-30T02:38:30.362Z,31.70
2019-04-30T02:39:30.358Z,20.80
2019-04-30T02:40:30.355Z,24.10
2019-04-30T02:41:30.348Z,20.80
2019-04-30T02:42:30.345Z,25.70
2019-04-30T02:43:30.342Z,24.80
2019-04-30T02:44:30.339Z,25.70
2019-04-30T02:45:30.331Z,23.00
2019-04-30T02:46:32.350Z,24.00
2019-04-30T02:47:30.463Z,28.50
2019-04-30T02:48:30.318Z,23.90
2019-04-30T02:49:30.513Z,22.20
2019-04-30T02:50:30.311Z,18.30
2019-04-30T02:51:30.303Z,24.70
2019-04-30T02:52:30.329Z,25.70
2019-04-30T02:53:30.297Z,20.00
2019-04-30T02:54:30.291Z,17.60
2019-04-30T02:55:30.287Z,22.50
2019-04-30T02:56:30.285Z,22.40
2019-04-30T02:57:30.278Z,21.80
2019-04-30T02:58:30.274Z,29.60
2019-04-30T02:59:30.310Z,23.60
2019-04-30T03:00:32.887Z,18.60
2019-04-30T03:01:30.649Z,20.90
2019-04-30T03:02:30.263Z,20.40
2019-04-30T03:03:30.252Z,22.80
2019-04-30T03:04:30.247Z,22.00
2019-04-30T03:05:31.143Z,20.10
2019-04-30T03:06:30.582Z,21.10
2019-04-30T03:07:30.234Z,22.20
2019-04-30T03:08:30.229Z,18.80
2019-04-30T03:09:30.225Z,19.50
2019-04-30T03:10:30.443Z,19.30
2019-04-30T03:11:30.396Z,22.00
2019-04-30T03:12:33.377Z,23.00
2019-04-30T03:13:30.206Z,21.80
2019-04-30T03:14:30.304Z,27.10
2019-04-30T03:15:30.199Z,20.70
2019-04-30T03:16:30.408Z,28.80
2019-04-30T03:17:30.190Z,20.40
2019-04-30T03:18:30.349Z,22.80
2019-04-30T03:19:30.178Z,22.00
2019-04-30T03:20:35.592Z,22.20
2019-04-30T03:21:32.020Z,21.30
2019-04-30T03:22:30.237Z,25.00
2019-04-30T03:23:30.161Z,23.40
2019-04-30T03:24:30.157Z,21.40
2019-04-30T03:25:30.153Z,24.10
2019-04-30T03:26:30.147Z,25.50
2019-04-30T03:27:30.335Z,28.50
2019-04-30T03:28:30.267Z,24.10
2019-04-30T03:29:30.471Z,27.30
2019-04-30T03:30:32.050Z,26.80
2019-04-30T03:31:32.360Z,24.00
2019-04-30T03:32:31.601Z,24.60
2019-04-30T03:33:32.620Z,28.20
2019-04-30T03:34:32.743Z,25.90
2019-04-30T03:35:32.396Z,29.40
2019-04-30T03:36:32.594Z,29.40
2019-04-30T03:37:30.101Z,27.10
2019-04-30T03:38:30.206Z,26.30
2019-04-30T03:39:33.650Z,28.20
2019-04-30T03:40:30.258Z,23.10
2019-04-30T03:41:33.366Z,24.00
2019-04-30T03:42:30.071Z,21.50
2019-04-30T03:43:30.238Z,25.50
2019-04-30T03:44:32.394Z,23.80
2019-04-30T03:45:30.240Z,22.70
2019-04-30T03:46:30.051Z,33.90
2019-04-30T03:47:30.285Z,25.70
2019-04-30T03:48:30.049Z,29.40
2019-04-30T03:49:30.055Z,27.60
2019-04-30T03:50:48.185Z,24.70
2019-04-30T03:51:30.426Z,28.60
2019-04-30T03:52:30.021Z,26.00
2019-04-30T03:53:30.048Z,24.30
2019-04-30T03:54:30.010Z,26.30
2019-04-30T03:55:30.121Z,26.40
2019-04-30T03:56:30.050Z,20.90
2019-04-30T03:57:30.372Z,24.30
2019-04-30T03:58:30.002Z,26.70
2019-04-30T03:59:30.281Z,20.20
2019-04-30T04:00:30.054Z,24.30
2019-04-30T04:01:29.988Z,24.40
2019-04-30T04:02:30.207Z,26.90
2019-04-30T04:03:29.965Z,27.90
2019-04-30T04:04:30.969Z,28.00
2019-04-30T04:05:30.051Z,26.50
2019-04-30T04:06:29.956Z,25.40
2019-04-30T04:07:30.225Z,28.90
2019-04-30T04:08:29.943Z,26.70
2019-04-30T04:09:30.185Z,29.40
2019-04-30T04:10:29.957Z,20.20
2019-04-30T04:11:29.987Z,20.50
2019-04-30T04:12:30.662Z,21.70
2019-04-30T04:13:33.024Z,23.20
2019-04-30T04:14:29.909Z,21.20
2019-04-30T04:15:30.063Z,23.10
2019-04-30T04:16:32.208Z,17.80
2019-04-30T04:17:31.345Z,22.10
2019-04-30T04:18:30.223Z,21.10
2019-04-30T04:19:29.884Z,23.80
2019-04-30T04:20:30.021Z,16.00
2019-04-30T04:21:30.065Z,16.70
2019-04-30T04:22:30.698Z,17.60
2019-04-30T04:23:32.746Z,18.80
2019-04-30T04:24:30.266Z,19.80
2019-04-30T04:25:30.130Z,17.90
2019-04-30T04:26:30.027Z,22.90
2019-04-30T04:27:30.427Z,19.60
2019-04-30T04:28:30.034Z,18.10
2019-04-30T04:29:29.994Z,27.00
2019-04-30T04:30:29.994Z,28.70
2019-04-30T04:31:30.029Z,23.20
2019-04-30T04:32:30.923Z,23.30
2019-04-30T04:33:29.849Z,23.80
2019-04-30T04:34:30.294Z,27.30
2019-04-30T04:35:30.163Z,27.60
2019-04-30T04:36:30.301Z,27.50
2019-04-30T04:37:30.405Z,29.70
2019-04-30T04:38:30.411Z,27.10
2019-04-30T04:39:29.860Z,29.70
2019-04-30T04:40:30.275Z,26.30
2019-04-30T04:41:29.819Z,25.40
2019-04-30T04:42:32.873Z,35.20
2019-04-30T04:43:30.054Z,26.80
2019-04-30T04:44:29.752Z,27.00
2019-04-30T04:45:30.494Z,24.90
2019-04-30T04:46:30.700Z,30.10
2019-04-30T04:47:30.814Z,29.00
2019-04-30T04:48:29.956Z,29.60
2019-04-30T04:49:30.619Z,30.10
2019-04-30T04:50:30.325Z,27.90
2019-04-30T04:51:38.160Z,24.40
2019-04-30T04:52:31.569Z,29.60
2019-04-30T04:53:30.386Z,26.90
2019-04-30T04:54:30.048Z,25.60
2019-04-30T04:55:30.111Z,24.70
2019-04-30T04:56:30.441Z,25.70
2019-04-30T04:57:30.322Z,28.00
2019-04-30T04:58:30.330Z,28.10
2019-04-30T04:59:29.806Z,23.80
2019-04-30T05:00:29.669Z,24.90
2019-04-30T05:01:29.663Z,24.90
2019-04-30T05:02:32.568Z,26.60
2019-04-30T05:03:29.828Z,26.20
2019-04-30T05:04:29.931Z,35.20
2019-04-30T05:05:29.927Z,27.00
2019-04-30T05:06:29.829Z,26.50
2019-04-30T05:07:29.628Z,28.50
2019-04-30T05:08:29.623Z,23.00
2019-04-30T05:09:29.619Z,28.40
2019-04-30T05:10:29.613Z,27.40
2019-04-30T05:11:31.617Z,29.80
2019-04-30T05:12:29.844Z,29.40
2019-04-30T05:13:29.597Z,29.20
2019-04-30T05:14:29.593Z,26.20
2019-04-30T05:15:29.639Z,30.70
2019-04-30T05:16:29.583Z,28.40
2019-04-30T05:17:31.963Z,32.00
2019-04-30T05:18:29.573Z,29.80
2019-04-30T05:19:29.575Z,24.90
2019-04-30T05:20:29.562Z,25.90
2019-04-30T05:21:41.755Z,27.50
2019-04-30T05:22:29.552Z,26.90
2019-04-30T05:23:29.882Z,30.60
2019-04-30T05:24:29.542Z,28.30
2019-04-30T05:25:29.667Z,29.20
2019-04-30T05:26:29.532Z,28.00
2019-04-30T05:27:30.280Z,28.50
2019-04-30T05:28:30.107Z,28.00
2019-04-30T05:29:29.519Z,27.30
2019-04-30T05:30:29.637Z,23.70
2019-04-30T05:31:29.505Z,28.70
2019-04-30T05:32:29.501Z,37.30
2019-04-30T05:33:29.497Z,30.20
2019-04-30T05:34:29.490Z,31.90
2019-04-30T05:35:31.076Z,29.60
2019-04-30T05:36:29.483Z,33.40
2019-04-30T05:37:29.478Z,32.80
2019-04-30T05:38:31.321Z,27.60
2019-04-30T05:39:29.465Z,30.70
2019-04-30T05:40:29.462Z,29.80
2019-04-30T05:41:29.467Z,30.80
2019-04-30T05:42:29.453Z,35.20
2019-04-30T05:43:29.450Z,35.20
2019-04-30T05:44:29.860Z,27.10
2019-04-30T05:45:29.440Z,31.20
2019-04-30T05:46:29.858Z,28.50
2019-04-30T05:47:29.429Z,35.10
2019-04-30T05:48:29.422Z,30.00
2019-04-30T05:49:29.418Z,26.70
2019-04-30T05:50:29.673Z,29.60
2019-04-30T05:51:29.407Z,34.80
2019-04-30T05:52:29.602Z,31.10
2019-04-30T05:53:29.400Z,34.80
2019-04-30T05:54:29.419Z,29.50
2019-04-30T05:55:29.511Z,29.60
2019-04-30T05:56:30.492Z,30.60
2019-04-30T05:57:29.502Z,26.50
2019-04-30T05:58:30.003Z,28.50
2019-04-30T05:59:29.371Z,25.30
2019-04-30T06:00:30.598Z,28.30
2019-04-30T06:01:29.631Z,23.70
2019-04-30T06:02:33.676Z,30.80
2019-04-30T06:03:33.084Z,26.90
2019-04-30T06:04:29.485Z,22.90
2019-04-30T06:05:29.346Z,32.20
2019-04-30T06:06:29.344Z,27.40
2019-04-30T06:07:29.942Z,26.00
2019-04-30T06:08:29.343Z,28.20
2019-04-30T06:09:33.649Z,27.50
2019-04-30T06:10:29.500Z,24.50
2019-04-30T06:11:29.338Z,25.20
2019-04-30T06:12:29.315Z,24.90
2019-04-30T06:13:31.823Z,25.80
2019-04-30T06:14:29.308Z,26.80
2019-04-30T06:15:29.303Z,23.00
2019-04-30T06:16:29.862Z,20.60
2019-04-30T06:17:29.366Z,23.10
2019-04-30T06:18:29.293Z,23.90
2019-04-30T06:19:29.331Z,22.80
2019-04-30T06:20:29.283Z,23.60
2019-04-30T06:21:29.492Z,26.20
2019-04-30T06:22:29.275Z,23.70
2019-04-30T06:23:29.440Z,24.50
2019-04-30T06:24:30.268Z,24.60
2019-04-30T06:25:40.852Z,27.30
2019-04-30T06:26:30.434Z,25.10
2019-04-30T06:27:29.286Z,23.50
2019-04-30T06:28:29.318Z,27.20
2019-04-30T06:29:29.247Z,22.60
2019-04-30T06:30:29.710Z,21.30
2019-04-30T06:31:34.790Z,23.10
2019-04-30T06:32:29.546Z,23.10
2019-04-30T06:33:29.230Z,27.80
2019-04-30T06:34:29.454Z,23.40
2019-04-30T06:35:29.521Z,29.70
2019-04-30T06:36:29.220Z,23.30
2019-04-30T06:37:31.519Z,24.80
2019-04-30T06:38:29.269Z,25.50
2019-04-30T06:39:29.208Z,24.60
2019-04-30T06:40:29.437Z,22.80
2019-04-30T06:41:29.624Z,25.40
2019-04-30T06:42:29.329Z,24.10
2019-04-30T06:43:29.193Z,23.70
2019-04-30T06:44:37.046Z,22.80
2019-04-30T06:45:29.185Z,23.20
2019-04-30T06:46:29.181Z,24.40
2019-04-30T06:47:33.005Z,24.90
2019-04-30T06:48:29.519Z,21.70
2019-04-30T06:49:29.172Z,19.40
2019-04-30T06:50:29.330Z,23.20
2019-04-30T06:51:30.745Z,24.00
2019-04-30T06:52:29.927Z,26.20
2019-04-30T06:53:31.780Z,22.70
2019-04-30T06:54:29.156Z,22.80
2019-04-30T06:55:30.859Z,23.20
2019-04-30T06:56:29.149Z,21.10
2019-04-30T06:57:29.525Z,20.40
2019-04-30T06:58:29.304Z,23.40
2019-04-30T06:59:29.939Z,21.60
2019-04-30T07:00:33.742Z,20.60
2019-04-30T07:01:29.334Z,23.00
2019-04-30T07:02:30.827Z,24.70
2019-04-30T07:03:29.210Z,22.20
2019-04-30T07:04:29.376Z,25.00
2019-04-30T07:05:29.118Z,21.90
2019-04-30T07:06:31.907Z,25.80
2019-04-30T07:07:38.453Z,22.90
2019-04-30T07:09:33.528Z,19.60
2019-04-30T07:11:29.439Z,26.30
2019-04-30T07:12:30.625Z,22.00
2019-04-30T07:13:29.712Z,24.10
2019-04-30T07:14:29.263Z,22.60
2019-04-30T07:15:29.856Z,22.70
2019-04-30T07:16:29.875Z,23.60
2019-04-30T07:17:29.322Z,20.70
2019-04-30T07:18:29.301Z,19.80
2019-04-30T07:20:29.434Z,17.80
2019-04-30T07:21:31.241Z,24.50
2019-04-30T07:22:40.178Z,22.30
2019-04-30T07:24:29.658Z,23.40
2019-04-30T07:28:43.035Z,24.70
2019-04-30T07:30:30.898Z,20.40
2019-04-30T07:31:29.653Z,21.50
2019-04-30T07:33:29.798Z,23.90
2019-04-30T07:37:30.187Z,21.10
2019-04-30T07:38:29.570Z,22.70
2019-04-30T07:41:30.871Z,18.60
2019-04-30T07:44:35.541Z,17.40
2019-04-30T07:45:31.983Z,18.60
2019-04-30T07:46:29.958Z,16.10
2019-04-30T07:48:29.805Z,17.10
2019-04-30T07:49:46.525Z,22.30
2019-04-30T07:51:13.622Z,22.50
2019-04-30T07:52:27.032Z,20.80
2019-04-30T07:53:12.774Z,19.60
2019-04-30T07:55:12.290Z,22.70
2019-04-30T07:56:24.306Z,15.90
2019-04-30T07:57:12.281Z,22.60
2019-04-30T07:58:12.411Z,20.30
2019-04-30T07:59:12.280Z,16.90
2019-04-30T08:00:12.276Z,20.20
2019-04-30T08:01:12.274Z,21.40
2019-04-30T08:02:14.642Z,22.50
2019-04-30T08:03:12.459Z,20.50
2019-04-30T08:04:12.266Z,21.70
2019-04-30T08:05:12.263Z,21.40
2019-04-30T08:06:12.361Z,15.70
2019-04-30T08:07:12.322Z,18.50
2019-04-30T08:08:21.249Z,18.90
2019-04-30T08:09:12.261Z,17.00
2019-04-30T08:10:12.267Z,17.10
2019-04-30T08:11:22.948Z,18.60
2019-04-30T08:12:22.292Z,14.70
2019-04-30T08:13:15.133Z,18.50
2019-04-30T08:14:12.265Z,16.00
2019-04-30T08:15:12.264Z,17.90
2019-04-30T08:16:12.268Z,20.00
2019-04-30T08:17:12.267Z,14.80
2019-04-30T08:18:12.273Z,16.20
2019-04-30T08:19:12.276Z,14.70
2019-04-30T08:20:12.281Z,14.00
2019-04-30T08:21:12.284Z,14.60
2019-04-30T08:22:12.287Z,12.90
2019-04-30T08:23:20.379Z,18.30
2019-04-30T08:24:12.297Z,12.50
2019-04-30T08:25:12.302Z,13.70
2019-04-30T08:26:12.305Z,16.60
2019-04-30T08:27:12.309Z,17.80
2019-04-30T08:28:12.316Z,16.50
2019-04-30T08:29:12.318Z,14.20
2019-04-30T08:30:22.989Z,18.00
2019-04-30T08:31:12.328Z,11.70
2019-04-30T08:32:12.331Z,12.90
2019-04-30T08:33:12.338Z,13.00
2019-04-30T08:34:12.341Z,17.40
2019-04-30T08:35:12.346Z,12.00
2019-04-30T08:36:12.353Z,16.60
2019-04-30T08:37:17.139Z,14.50
2019-04-30T08:38:12.360Z,11.10
2019-04-30T08:39:12.368Z,12.40
2019-04-30T08:40:12.374Z,14.30
2019-04-30T08:41:12.379Z,16.20
2019-04-30T08:42:12.386Z,11.80
2019-04-30T08:43:12.393Z,14.80
2019-04-30T08:44:12.403Z,13.20
2019-04-30T08:45:12.405Z,12.70
2019-04-30T08:46:12.413Z,10.50
2019-04-30T08:47:12.425Z,16.20
2019-04-30T08:48:12.428Z,16.10
2019-04-30T08:49:12.597Z,8.90
2019-04-30T08:50:12.569Z,13.60
2019-04-30T08:51:13.945Z,12.30
2019-04-30T08:52:12.489Z,10.00
2019-04-30T08:53:12.536Z,12.00
2019-04-30T08:54:12.551Z,11.10
2019-04-30T08:55:16.546Z,9.30
2019-04-30T08:56:12.493Z,18.30
2019-04-30T08:57:12.502Z,12.90
2019-04-30T08:58:15.069Z,9.10
2019-04-30T08:59:12.520Z,10.90
2019-04-30T09:00:14.959Z,8.80
2019-04-30T09:01:12.538Z,9.80
2019-04-30T09:02:16.259Z,8.80
2019-04-30T09:03:12.557Z,11.00
2019-04-30T09:04:12.568Z,12.10
2019-04-30T09:05:12.578Z,11.50
2019-04-30T09:06:12.588Z,9.30
2019-04-30T09:07:12.597Z,8.80
2019-04-30T09:08:12.611Z,11.00
2019-04-30T09:09:12.619Z,9.00
2019-04-30T09:10:12.630Z,9.50
2019-04-30T09:11:22.456Z,14.50
2019-04-30T09:12:12.651Z,10.60
2019-04-30T09:13:12.661Z,10.60
2019-04-30T09:14:12.672Z,9.10
2019-04-30T09:15:12.684Z,8.90
2019-04-30T09:16:12.698Z,11.00
2019-04-30T09:17:12.707Z,11.10
2019-04-30T09:18:12.809Z,10.40
2019-04-30T09:19:12.734Z,8.60
2019-04-30T09:20:12.740Z,9.80
2019-04-30T09:21:12.751Z,9.30
2019-04-30T09:22:15.193Z,13.10
2019-04-30T09:23:12.773Z,11.10
2019-04-30T09:24:12.786Z,9.70
2019-04-30T09:25:12.797Z,11.50
2019-04-30T09:26:12.809Z,12.30
2019-04-30T09:27:12.820Z,10.30
2019-04-30T09:28:12.833Z,9.90
2019-04-30T09:29:12.841Z,13.30
2019-04-30T09:30:12.854Z,9.60
2019-04-30T09:31:12.865Z,9.40
2019-04-30T09:32:12.877Z,10.40
2019-04-30T09:33:12.888Z,8.80
2019-04-30T09:34:17.471Z,9.70
2019-04-30T09:35:12.911Z,9.30
2019-04-30T09:36:12.925Z,9.80
2019-04-30T09:37:12.937Z,11.30
2019-04-30T09:38:12.943Z,12.50
2019-04-30T09:39:12.955Z,10.20
2019-04-30T09:40:18.271Z,11.60
2019-04-30T09:41:12.978Z,13.10
2019-04-30T09:42:12.989Z,8.50
2019-04-30T09:43:12.999Z,11.20
2019-04-30T09:44:13.011Z,9.50
2019-04-30T09:45:13.021Z,9.80
2019-04-30T09:46:21.984Z,12.40
2019-04-30T09:47:13.043Z,14.40
2019-04-30T09:48:13.060Z,8.80
2019-04-30T09:49:13.065Z,12.80
2019-04-30T09:50:13.077Z,9.50
2019-04-30T09:51:13.383Z,8.00
2019-04-30T09:52:13.132Z,12.00
2019-04-30T09:53:13.290Z,10.70
2019-04-30T09:54:13.531Z,8.40
2019-04-30T09:55:13.238Z,8.70
2019-04-30T09:56:13.146Z,11.90
2019-04-30T09:57:13.155Z,10.20
2019-04-30T09:58:17.082Z,12.90
2019-04-30T09:59:13.181Z,10.50
2019-04-30T10:00:13.191Z,10.20
2019-04-30T10:01:13.202Z,12.00
2019-04-30T10:02:13.213Z,14.90
2019-04-30T10:03:13.787Z,14.70
2019-04-30T10:04:13.511Z,8.60
2019-04-30T10:05:13.755Z,11.70
2019-04-30T10:06:13.261Z,10.10
2019-04-30T10:07:13.271Z,13.40
2019-04-30T10:08:13.285Z,16.90
2019-04-30T10:09:13.293Z,12.90
2019-04-30T10:10:13.305Z,11.00
2019-04-30T10:11:13.314Z,9.80
2019-04-30T10:12:13.329Z,15.30
2019-04-30T10:13:13.336Z,17.10
2019-04-30T10:14:13.350Z,10.40
2019-04-30T10:15:13.359Z,10.00
2019-04-30T10:16:13.371Z,10.40
2019-04-30T10:17:13.381Z,12.30
2019-04-30T10:18:13.392Z,14.40
2019-04-30T10:19:14.977Z,17.20
2019-04-30T10:20:13.414Z,12.60
2019-04-30T10:21:13.423Z,13.20
2019-04-30T10:22:13.433Z,13.70
2019-04-30T10:23:13.449Z,14.30
2019-04-30T10:24:15.791Z,12.50
2019-04-30T10:25:13.465Z,14.80
2019-04-30T10:26:13.475Z,12.20
2019-04-30T10:27:13.695Z,18.90
2019-04-30T10:28:13.513Z,12.50
2019-04-30T10:29:13.518Z,20.50
2019-04-30T10:30:13.514Z,12.60
2019-04-30T10:31:13.524Z,14.20
2019-04-30T10:32:13.532Z,15.40
2019-04-30T10:33:13.542Z,13.00
2019-04-30T10:34:13.551Z,12.70
2019-04-30T10:35:13.562Z,16.00
2019-04-30T10:36:13.569Z,12.70
2019-04-30T10:37:13.578Z,13.50
2019-04-30T10:38:13.587Z,12.40
2019-04-30T10:39:13.596Z,11.10
2019-04-30T10:40:13.606Z,13.00
2019-04-30T10:41:13.615Z,11.00
2019-04-30T10:42:13.623Z,14.40
2019-04-30T10:43:13.633Z,14.00
2019-04-30T10:44:13.641Z,13.90
2019-04-30T10:45:13.651Z,15.70
2019-04-30T10:46:13.659Z,16.00
2019-04-30T10:47:13.668Z,13.60
2019-04-30T10:48:13.677Z,15.70
2019-04-30T10:49:13.684Z,15.30
2019-04-30T10:50:13.693Z,19.00
2019-04-30T10:51:13.702Z,16.70
2019-04-30T10:52:13.710Z,17.20
2019-04-30T10:53:13.717Z,16.60
2019-04-30T10:54:23.197Z,20.20
2019-04-30T10:55:13.736Z,14.70
2019-04-30T10:56:13.745Z,21.30
2019-04-30T10:57:13.749Z,16.20
2019-04-30T10:58:15.449Z,11.90
2019-04-30T10:59:13.767Z,15.10
2019-04-30T11:00:13.774Z,14.60
2019-04-30T11:01:13.782Z,14.50
2019-04-30T11:02:13.789Z,19.90
2019-04-30T11:03:20.001Z,12.70
2019-04-30T11:04:13.807Z,14.80
2019-04-30T11:05:13.808Z,14.80
2019-04-30T11:06:13.816Z,13.90
2019-04-30T11:07:13.822Z,20.00
2019-04-30T11:08:13.829Z,14.30
2019-04-30T11:09:13.833Z,16.00
2019-04-30T11:10:13.839Z,18.00
2019-04-30T11:11:13.846Z,29.10
2019-04-30T11:12:13.852Z,19.70
2019-04-30T11:13:13.857Z,16.10
2019-04-30T11:14:13.862Z,19.50
2019-04-30T11:15:13.867Z,19.80
2019-04-30T11:16:15.665Z,23.10
2019-04-30T11:17:14.085Z,19.70
2019-04-30T11:18:14.054Z,21.50
2019-04-30T11:19:13.954Z,20.90
2019-04-30T11:20:14.003Z,21.80
2019-04-30T11:21:14.059Z,20.50
2019-04-30T11:22:14.043Z,22.50
2019-04-30T11:23:14.903Z,23.00
2019-04-30T11:24:14.031Z,25.20
2019-04-30T11:25:14.014Z,22.00
2019-04-30T11:26:14.386Z,17.90
2019-04-30T11:27:14.339Z,18.70
2019-04-30T11:28:14.119Z,18.70
2019-04-30T11:29:14.011Z,18.40
2019-04-30T11:30:21.337Z,17.00
2019-04-30T11:31:14.028Z,16.80
2019-04-30T11:32:14.130Z,15.00
2019-04-30T11:33:14.072Z,20.20
2019-04-30T11:34:13.944Z,16.60
2019-04-30T11:35:13.947Z,14.40
2019-04-30T11:36:13.951Z,15.90
2019-04-30T11:37:13.952Z,15.40
2019-04-30T11:38:13.957Z,14.90
2019-04-30T11:39:14.769Z,14.20
2019-04-30T11:40:13.964Z,13.20
2019-04-30T11:41:13.966Z,15.70
2019-04-30T11:42:13.967Z,16.00
2019-04-30T11:43:13.972Z,13.40
2019-04-30T11:44:58.631Z,10.80
2019-04-30T11:46:00.057Z,14.70
2019-04-30T11:46:59.452Z,21.20
2019-04-30T11:47:59.053Z,23.60
2019-04-30T11:48:58.721Z,12.60
2019-04-30T11:49:57.313Z,14.40
2019-04-30T11:50:59.420Z,14.00
2019-04-30T11:51:58.531Z,11.60
2019-04-30T11:53:09.685Z,11.40
2019-04-30T11:53:59.215Z,15.50
2019-04-30T11:54:59.476Z,17.50
2019-04-30T11:55:59.102Z,14.30
2019-04-30T11:56:58.759Z,13.20
2019-04-30T11:57:59.163Z,16.40
2019-04-30T11:59:57.338Z,15.60
2019-04-30T12:03:23.995Z,10.00
2019-04-30T12:04:23.996Z,8.90
2019-04-30T12:05:23.999Z,11.70
2019-04-30T12:06:24.000Z,16.40
2019-04-30T12:07:24.003Z,12.00
2019-04-30T12:08:26.383Z,13.60
2019-04-30T12:09:24.005Z,10.80
2019-04-30T12:10:24.008Z,15.20
2019-04-30T12:11:24.009Z,17.40
2019-04-30T12:12:24.011Z,13.40
2019-04-30T12:13:24.015Z,14.10
2019-04-30T12:14:24.015Z,12.00
2019-04-30T12:15:24.021Z,16.50
2019-04-30T12:16:24.020Z,12.50
2019-04-30T12:17:24.021Z,18.00
2019-04-30T12:18:24.024Z,12.60
2019-04-30T12:19:24.025Z,14.40
2019-04-30T12:20:24.025Z,11.90
2019-04-30T12:21:24.027Z,9.60
2019-04-30T12:22:24.031Z,10.00
2019-04-30T12:23:24.030Z,10.00
2019-04-30T12:24:24.032Z,15.40
2019-04-30T12:25:24.036Z,13.30
2019-04-30T12:26:24.035Z,10.50
2019-04-30T12:27:24.038Z,11.70
2019-04-30T12:28:24.038Z,13.10
2019-04-30T12:29:24.040Z,14.50
2019-04-30T12:30:24.043Z,11.70
2019-04-30T12:31:24.043Z,12.80
2019-04-30T12:32:24.044Z,15.90
2019-04-30T12:33:24.049Z,15.10
2019-04-30T12:34:24.048Z,14.80
2019-04-30T12:35:24.049Z,15.30
2019-04-30T12:36:24.051Z,15.10
2019-04-30T12:37:24.051Z,18.30
2019-04-30T12:38:24.053Z,12.70
2019-04-30T12:39:24.056Z,17.60
2019-04-30T12:40:29.043Z,17.10
2019-04-30T12:41:24.058Z,15.90
2019-04-30T12:42:24.059Z,16.80
2019-04-30T12:43:24.063Z,14.10
2019-04-30T12:44:24.064Z,16.80
2019-04-30T12:45:24.064Z,16.40
2019-04-30T12:46:24.065Z,14.60
2019-04-30T12:47:24.067Z,20.30
2019-04-30T12:48:24.067Z,19.00
2019-04-30T12:49:24.068Z,15.70
2019-04-30T12:50:24.071Z,14.10
2019-04-30T12:51:24.072Z,19.20
2019-04-30T12:52:24.073Z,16.90
2019-04-30T12:53:24.078Z,17.10
2019-04-30T12:54:24.076Z,16.60
2019-04-30T12:55:24.081Z,17.10
2019-04-30T12:56:27.153Z,13.90
2019-04-30T12:57:24.080Z,14.20
2019-04-30T12:58:24.081Z,17.30
2019-04-30T12:59:24.085Z,12.00
2019-04-30T13:00:24.086Z,11.10
2019-04-30T13:01:24.088Z,19.00
2019-04-30T13:02:24.089Z,20.50
2019-04-30T13:03:24.089Z,17.60
2019-04-30T13:04:24.091Z,14.90
2019-04-30T13:05:24.093Z,18.80
2019-04-30T13:06:24.475Z,15.40
2019-04-30T13:07:24.560Z,15.30
2019-04-30T13:08:24.279Z,14.70
2019-04-30T13:09:24.219Z,16.70
2019-04-30T13:10:24.282Z,15.00
2019-04-30T13:11:24.641Z,14.10
2019-04-30T13:12:24.474Z,17.00
2019-04-30T13:13:24.547Z,15.70
2019-04-30T13:14:24.544Z,22.30
2019-04-30T13:15:24.117Z,14.70
2019-04-30T13:16:24.114Z,15.10